Stations météo

réclame
Mon MeteoGroup
Fichtelberg, Allemagne (10578): Température de l'air & dewpoint: 12.10.2018 18:00:00 - 18.10.2018 18:00:00 (CEST)Fichtelberg, Allemagne (10578): Température de l'air 5cm & Température de l'air -5cm: 12.10.2018 18:00:00 - 18.10.2018 18:00:00 (CEST)Fichtelberg, Allemagne (10578): Température de l'air -20cm & Température de l'air -100cm: 12.10.2018 18:00:00 - 18.10.2018 18:00:00 (CEST)Fichtelberg, Allemagne (10578): Vitesse du vent & gusts: 12.10.2018 18:00:00 - 18.10.2018 18:00:00 (CEST)Fichtelberg, Allemagne (10578): Direction du vent: 12.10.2018 18:00:00 - 18.10.2018 18:00:00 (CEST)Fichtelberg, Allemagne (10578): visibility: 12.10.2018 18:00:00 - 18.10.2018 18:00:00 (CEST)Fichtelberg, Allemagne (10578): Ensoleillement: 12.10.2018 18:00:00 - 18.10.2018 18:00:00 (CEST)Fichtelberg, Allemagne (10578): Quantités de précipitations: 12.10.2018 18:00:00 - 18.10.2018 18:00:00 (CEST)
Date & Time tt [°C] td [°C] tt 5cm [°C] tt -5cm [°C] tt -20cm [°C] tt -100cm [°C] ff [km/h] ff [knt] fx [km/h] fx [knt] dd vv [km] sd [min] rr [mm]
18.10.2018 18:00:00 7,7 7,2 7,9 12,2 10,7 10,3 21 11 31 17 NW 0,3 0 -
18.10.2018 17:00:00 8,6 7,2 8,8 13,4 10,5 10,3 22 12 29 16 NNW 5 3 -
18.10.2018 16:00:00 10,2 7,2 10,9 14,5 10,1 10,3 21 11 28 15 NW 8 19 -
18.10.2018 15:00:00 10,6 6,7 11,6 15,3 9,8 10,3 16 9 23 12 NW 10 36 -
18.10.2018 14:00:00 11,4 7,3 16,2 14,7 9,4 10,3 12 6 22 12 NNW 10 59 -
18.10.2018 13:00:00 10,7 7,5 14,5 12,8 9,2 10,3 15 8 20 11 NW 8 45 -
18.10.2018 12:00:00 9,9 7,3 13,3 10,5 9,1 10,3 13 7 24 13 N 4,5 19 -
18.10.2018 11:00:00 10,2 7,0 14,4 8,8 9,1 10,3 19 11 28 15 NNW 5 57 -
18.10.2018 10:00:00 8,3 6,6 8,7 7,1 9,2 10,3 20 11 24 13 NNW 6 45 -
18.10.2018 09:00:00 7,1 6,9 6,6 6,7 9,4 10,3 22 12 24 13 NNW 7 11 0,0
18.10.2018 08:00:00 7,2 6,9 6,7 6,0 9,6 10,3 21 11 24 13 NW 0,1 0 -
18.10.2018 07:00:00 6,9 6,3 5,4 5,8 9,8 10,3 21 11 22 12 NW 8 0 -
18.10.2018 06:00:00 7,1 5,2 4,7 6,1 10,0 10,3 18 10 20 11 NW 15 0 -
18.10.2018 05:00:00 6,9 5,6 4,5 6,4 10,2 10,3 18 10 21 11 WNW 11 0 -
18.10.2018 04:00:00 7,5 5,7 4,8 6,8 10,4 10,3 18 10 21 11 WNW 16 0 -
18.10.2018 03:00:00 7,8 5,3 5,0 7,2 10,6 10,3 19 10 24 13 W 20 0 -
18.10.2018 02:00:00 8,2 5,9 5,2 7,7 10,8 10,3 22 12 23 13 W 18 0 -
18.10.2018 01:00:00 8,7 5,9 6,3 8,1 11,0 10,3 21 11 22 12 WSW 16 0 -
18.10.2018 00:00:00 9,1 6,1 6,9 8,5 11,2 10,3 17 9 18 10 SW 18 0 -
17.10.2018 23:00:00 9,1 6,4 6,0 8,9 11,5 10,3 14 8 16 8 S 17 0 -
17.10.2018 22:00:00 8,9 6,1 6,1 9,6 11,6 10,3 12 6 13 7 S 18 0 -
17.10.2018 21:00:00 9,7 5,8 4,2 10,7 11,7 10,3 3 1 10 5 SSE 20 0 -
17.10.2018 20:00:00 9,9 5,5 7,9 11,9 11,8 10,3 11 6 12 6 N 19 0 -
17.10.2018 19:00:00 10,4 6,0 8,7 13,3 11,7 10,3 9 5 11 6 NNW 23 0 -
17.10.2018 18:00:00 11,9 6,8 9,7 15,3 11,4 10,3 7 4 14 7 NNW 29 37 -
17.10.2018 17:00:00 13,9 6,6 14,0 17,1 11,0 10,3 8 4 20 11 SW 35 60 -
17.10.2018 16:00:00 14,3 6,5 16,6 17,8 10,5 10,3 14 8 20 11 SSW 35 60 -
17.10.2018 15:00:00 14,6 6,2 18,0 17,9 10,0 10,3 13 7 21 11 SW 35 60 -
17.10.2018 14:00:00 14,9 7,4 17,8 16,7 9,6 10,3 9 5 17 9 NNW 35 53 -
17.10.2018 13:00:00 13,7 7,3 18,8 15,0 9,3 10,3 6 3 12 7 NNE 35 60 -
17.10.2018 12:00:00 13,9 6,8 17,7 12,3 9,2 10,3 5 3 11 6 WSW 30 60 -
17.10.2018 11:00:00 13,1 6,5 16,2 9,6 9,2 10,3 5 3 10 6 W 35 60 -
17.10.2018 10:00:00 11,7 5,2 12,6 7,2 9,3 10,3 8 4 13 7 SW 35 60 -
17.10.2018 09:00:00 10,0 5,0 8,2 6,1 9,5 10,3 11 6 16 9 SW 45 56 0,3
17.10.2018 08:00:00 8,6 4,7 5,5 6,0 9,6 10,3 17 9 19 10 WSW 45 0 -
17.10.2018 07:00:00 8,9 4,6 5,0 6,4 9,8 10,3 16 8 16 9 WSW 45 0 -
17.10.2018 06:00:00 9,2 4,6 5,3 6,9 10,0 10,3 13 7 14 7 SW 50 0 -
17.10.2018 05:00:00 9,6 4,7 6,0 7,3 10,1 10,3 12 6 16 9 SW 39 0 -
17.10.2018 04:00:00 9,9 4,8 7,3 7,9 10,2 10,3 13 7 16 9 SW 51 0 -
17.10.2018 03:00:00 9,9 4,9 6,7 8,2 10,3 10,3 11 6 17 9 SW 53 0 -
17.10.2018 02:00:00 9,9 5,1 7,1 8,8 10,4 10,3 13 7 18 10 SSW 40 0 -
17.10.2018 01:00:00 10,2 4,9 7,1 9,1 10,5 10,3 5 3 9 5 SW 54 0 -
17.10.2018 00:00:00 10,7 4,7 7,1 9,5 10,6 10,3 0 0 10 5 N 75 0 -
16.10.2018 23:00:00 10,0 5,9 8,1 9,7 10,7 10,3 8 4 13 7 WSW 38 0 -
16.10.2018 22:00:00 10,1 6,6 8,6 9,8 10,8 10,3 11 6 13 7 W 31 0 -
16.10.2018 21:00:00 10,4 5,9 8,5 10,2 10,8 10,3 9 5 11 6 SW 38 0 -
16.10.2018 20:00:00 10,4 6,2 8,2 10,8 10,8 10,3 9 5 11 6 SW 37 0 -
16.10.2018 19:00:00 10,8 6,8 8,8 11,7 10,7 10,3 4 2 6 4 SE 32 0 -
16.10.2018 18:00:00 11,6 6,8 9,5 12,7 10,5 10,3 4 2 10 5 W 39 0 -
16.10.2018 17:00:00 12,6 7,4 12,0 13,9 10,3 10,3 9 5 15 8 W 45 0 -
16.10.2018 16:00:00 13,7 7,2 14,3 14,4 9,9 10,3 12 7 16 9 WSW 50 10 -
16.10.2018 15:00:00 14,0 7,3 14,0 14,7 9,6 10,3 8 4 20 11 W 50 8 -
16.10.2018 14:00:00 15,7 6,1 18,3 14,0 9,4 10,3 12 7 19 10 W 45 41 -
16.10.2018 13:00:00 12,7 5,5 13,2 11,0 9,2 10,3 8 5 11 6 W 45 0 -
16.10.2018 12:00:00 12,3 5,1 13,0 10,6 9,1 10,3 2 1 10 6 W 50 0 -
16.10.2018 11:00:00 12,4 5,9 13,3 9,4 9,0 10,3 7 4 9 5 W 50 0 -
16.10.2018 10:00:00 11,2 5,2 11,9 8,1 9,1 10,4 9 5 12 6 W 50 0 -
16.10.2018 09:00:00 10,0 4,5 8,6 7,0 9,2 10,4 10 5 16 8 WNW 50 0 0,0
16.10.2018 08:00:00 9,7 3,8 7,6 6,7 9,3 10,4 13 7 16 9 WNW 45 0 -
16.10.2018 07:00:00 9,7 3,6 7,3 6,4 9,4 10,4 13 7 18 10 WNW 60 0 -
16.10.2018 06:00:00 9,7 3,3 6,8 6,3 9,6 10,4 14 8 17 9 WNW 70 0 -
16.10.2018 05:00:00 9,9 3,3 5,3 6,3 9,7 10,4 13 7 15 8 WNW 48 0 -
16.10.2018 04:00:00 10,3 3,1 5,7 6,5 9,9 10,4 8 5 10 6 W 47 0 -
16.10.2018 03:00:00 9,3 3,5 4,2 7,1 10,0 10,4 9 5 12 7 S 48 0 -
16.10.2018 02:00:00 10,3 3,8 6,6 7,3 10,2 10,4 10 5 13 7 S 53 0 -
16.10.2018 01:00:00 10,5 3,8 8,1 7,5 10,4 10,4 12 7 22 12 SSE 52 0 -
16.10.2018 00:00:00 8,1 2,8 6,6 7,6 10,6 10,4 21 11 32 17 ESE 38 0 -
15.10.2018 23:00:00 9,7 2,9 8,2 8,1 10,7 10,4 27 15 32 17 ESE 48 0 -
15.10.2018 22:00:00 9,1 2,7 7,7 8,6 10,8 10,4 26 14 31 17 ESE 38 0 -
15.10.2018 21:00:00 9,4 2,5 8,0 9,3 10,9 10,4 24 13 37 20 ESE 42 0 -
15.10.2018 20:00:00 10,0 2,4 8,8 10,3 11,0 10,4 27 15 37 20 ESE 41 0 -
15.10.2018 19:00:00 10,2 2,3 9,6 11,1 11,0 10,4 23 13 36 19 ESE 36 15 -
15.10.2018 18:00:00 10,6 2,6 10,1 12,2 10,8 10,4 24 13 37 20 ESE 39 0 -
15.10.2018 17:00:00 10,7 2,4 10,6 13,6 10,5 10,4 19 10 28 15 SE 70 2 -
15.10.2018 16:00:00 11,3 2,7 13,5 15,0 10,2 10,4 16 8 23 12 SE 60 30 -
15.10.2018 15:00:00 11,5 2,7 13,1 15,2 9,8 10,4 17 9 25 14 E 70 39 -
15.10.2018 14:00:00 12,2 3,3 15,0 15,1 9,5 10,4 13 7 24 13 ESE 70 58 -
15.10.2018 13:00:00 12,9 3,2 16,1 13,1 9,3 10,4 12 6 25 14 ESE 70 51 -
15.10.2018 12:00:00 12,8 3,4 18,2 11,3 9,1 10,4 14 7 24 13 SSE 60 56 -
15.10.2018 11:00:00 11,6 3,0 13,7 9,2 9,2 10,4 13 7 29 15 ESE 60 60 -
15.10.2018 10:00:00 10,8 2,4 12,6 6,9 9,3 10,4 18 10 25 14 SSE 60 60 -
15.10.2018 09:00:00 9,9 1,9 9,1 5,8 9,4 10,4 15 8 30 16 SE 70 56 0,0
15.10.2018 08:00:00 8,6 1,6 6,5 5,7 9,6 10,4 20 11 29 15 SE 70 0 -
15.10.2018 07:00:00 9,7 1,8 6,7 5,9 9,8 10,4 22 12 29 16 SSE 70 0 -
15.10.2018 06:00:00 9,5 1,9 6,7 6,1 10,0 10,4 16 9 31 17 SE 70 0 -
15.10.2018 05:00:00 8,1 1,8 6,1 6,3 10,2 10,3 19 11 33 18 SE 61 0 -
15.10.2018 04:00:00 6,7 1,2 4,7 6,7 10,4 10,3 20 11 29 15 E 51 0 -
15.10.2018 03:00:00 8,6 2,4 6,4 7,1 10,6 10,3 21 11 30 16 SE 64 0 -
15.10.2018 02:00:00 9,1 2,5 7,3 7,6 10,8 10,3 22 12 31 17 SE 57 0 -
15.10.2018 01:00:00 9,7 2,7 7,6 8,0 11,0 10,3 23 12 41 22 SE 63 0 -
15.10.2018 00:00:00 10,0 2,9 8,1 8,5 11,2 10,3 27 15 55 30 SE 54 0 -
14.10.2018 23:00:00 11,2 3,4 9,2 8,9 11,3 10,3 40 22 54 29 SSE 52 0 -
14.10.2018 22:00:00 11,4 4,0 9,5 9,5 11,5 10,3 36 20 50 27 SE 44 0 -
14.10.2018 21:00:00 11,4 4,9 9,7 10,2 11,6 10,3 32 17 49 26 ESE 39 0 -
14.10.2018 20:00:00 11,8 4,9 10,1 10,9 11,6 10,3 35 19 49 26 ESE 40 0 -
14.10.2018 19:00:00 11,9 4,8 10,4 12,1 11,6 10,3 37 20 49 27 ESE 44 20 -
14.10.2018 18:00:00 12,4 4,8 11,2 14,0 11,4 10,3 39 21 48 26 ESE 39 60 -
14.10.2018 17:00:00 13,2 5,3 13,5 15,8 11,0 10,3 34 18 45 24 ESE 30 60 -
14.10.2018 16:00:00 13,6 5,3 15,3 16,7 10,6 10,3 24 13 36 19 ESE 30 60 -
14.10.2018 15:00:00 12,7 5,7 15,4 16,6 10,2 10,3 26 14 34 18 E 30 60 -
14.10.2018 14:00:00 12,6 5,5 15,7 15,8 9,9 10,3 22 12 29 16 E 30 60 -
14.10.2018 13:00:00 11,2 5,4 14,9 14,3 9,6 10,3 22 12 29 16 E 30 60 -
14.10.2018 12:00:00 12,1 5,7 15,5 12,3 9,5 10,3 19 10 27 15 E 30 60 -
14.10.2018 11:00:00 13,7 3,9 15,9 9,7 9,5 10,3 21 11 36 19 SE 35 60 -
14.10.2018 10:00:00 13,0 3,0 14,1 7,4 9,6 10,3 21 12 32 17 SE 60 60 -
14.10.2018 09:00:00 10,1 2,7 9,7 6,2 9,8 10,3 17 9 34 19 SE 50 60 0,0
14.10.2018 08:00:00 8,5 2,8 6,6 6,2 10,0 10,3 25 13 40 22 SE 50 11 -
14.10.2018 07:00:00 10,1 2,6 8,0 6,4 10,1 10,3 36 20 48 26 SE 50 0 -
14.10.2018 06:00:00 9,1 3,1 7,2 6,6 10,3 10,3 27 15 37 20 SE 50 0 -
14.10.2018 05:00:00 7,6 4,0 6,1 6,8 10,5 10,3 27 14 37 20 ESE 30 0 -
14.10.2018 04:00:00 7,9 4,3 6,1 7,1 10,7 10,3 29 16 41 22 ESE 28 0 -
14.10.2018 03:00:00 9,0 4,4 6,9 7,4 11,0 10,3 29 16 40 22 SE 31 0 -
14.10.2018 02:00:00 8,2 4,7 6,6 7,8 11,2 10,3 28 15 42 23 ESE 26 0 -
14.10.2018 01:00:00 8,5 5,0 6,9 8,3 11,4 10,3 33 18 47 25 ESE 25 0 -
14.10.2018 00:00:00 8,5 5,4 7,2 8,8 11,6 10,3 39 21 51 28 ESE 20 0 -
13.10.2018 23:00:00 9,3 5,7 7,9 9,2 11,8 10,3 41 22 56 30 SE 23 0 -
13.10.2018 22:00:00 9,8 5,7 8,5 9,8 12,0 10,3 40 22 55 30 ESE 25 0 -
13.10.2018 21:00:00 9,9 6,4 8,5 10,4 12,1 10,3 37 20 52 28 ESE 20 0 -
13.10.2018 20:00:00 10,3 6,8 8,9 11,2 12,2 10,3 36 19 45 24 ESE 19 0 -
13.10.2018 19:00:00 10,0 6,8 8,7 12,5 12,2 10,3 35 19 50 27 ESE 16 27 -
13.10.2018 18:00:00 10,2 6,8 9,3 14,8 12,0 10,3 36 20 46 25 ESE 15 60 -
13.10.2018 17:00:00 11,4 6,9 12,1 17,0 11,7 10,3 30 16 40 22 ESE 70 60 -
13.10.2018 16:00:00 12,8 6,6 14,7 18,1 11,2 10,3 26 14 32 18 ESE 70 60 -
13.10.2018 15:00:00 15,0 5,2 17,5 18,1 10,8 10,3 22 12 28 15 ESE 70 60 -
13.10.2018 14:00:00 15,3 6,9 18,5 17,2 10,4 10,3 18 10 25 14 ESE 60 60 -
13.10.2018 13:00:00 15,4 7,0 18,9 15,5 10,1 10,3 21 11 30 16 ESE 60 60 -
13.10.2018 12:00:00 14,9 6,8 17,9 13,6 9,9 10,3 21 12 29 15 ESE 60 60 -
13.10.2018 11:00:00 15,2 6,2 17,3 11,2 9,9 10,3 20 11 24 13 ESE 60 60 -
13.10.2018 10:00:00 14,5 6,9 15,6 8,9 10,0 10,3 16 9 27 14 ESE 70 60 -
13.10.2018 09:00:00 13,3 6,9 12,7 7,6 10,1 10,3 16 8 22 12 ESE 70 60 0,0
13.10.2018 08:00:00 12,6 4,9 9,4 7,4 10,2 10,3 13 7 18 10 SE 70 16 -
13.10.2018 07:00:00 12,3 4,8 8,6 7,7 10,4 10,3 12 7 23 12 SE 70 0 -
13.10.2018 06:00:00 12,6 5,0 10,1 7,8 10,5 10,3 16 9 29 15 ESE 60 0 -
13.10.2018 05:00:00 12,9 4,4 10,3 7,9 10,7 10,3 16 9 23 12 ESE 58 0 -
13.10.2018 04:00:00 13,4 5,0 10,4 8,1 10,9 10,3 16 8 21 12 SSE 75 0 -
13.10.2018 03:00:00 13,4 5,3 10,4 8,4 11,1 10,3 18 10 22 12 SSE 69 0 -
13.10.2018 02:00:00 12,8 5,7 9,5 8,7 11,3 10,3 21 12 26 14 S 55 0 -
13.10.2018 01:00:00 12,7 5,9 9,7 9,1 11,4 10,3 18 10 25 14 SSE 44 0 -
13.10.2018 00:00:00 13,0 6,0 10,3 9,5 11,6 10,3 17 9 28 15 SSE 45 0 -
12.10.2018 23:00:00 12,8 5,4 9,5 10,0 11,8 10,3 19 11 28 15 S 55 0 -
12.10.2018 22:00:00 13,3 6,0 10,4 10,6 11,9 10,3 25 14 28 15 S 55 0 -
12.10.2018 21:00:00 13,1 7,0 10,3 11,3 12,0 10,3 24 13 28 15 S 56 0 -
12.10.2018 20:00:00 12,8 7,1 9,9 12,4 12,0 10,3 21 12 22 12 S 54 0 -
12.10.2018 19:00:00 13,2 7,2 10,1 13,9 11,8 10,3 15 8 23 12 S 54 23 -
12.10.2018 18:00:00 14,5 8,1 12,8 16,2 11,5 10,3 16 8 19 10 SSE 41 60 -

tt = Température de l'air
td = dewpoint
tt 5cm = Température de l'air 5cm
tt -5cm = Température de l'air -5cm
tt -20cm = Température de l'air -20cm
tt -100cm = Température de l'air -100cm
ff = Vitesse du vent
fx = gusts
dd = Direction du vent
vv = visibility
sd = Ensoleillement
rr = Quantités de précipitations

stations d'obs. à proximité